Flight Track Log - Related Links

Times and Time Zones

All times are in EDT time to prevent confusion due to time zone crossing. See the USC105 flight status page for this flight to view local times or setup timezone preferences in your user account.


Time Position Orientation Groundspeed Altitude Reporting Facility
EDT Latitude Longitude Course Direction KTS MPH feet Rate Location/Type
Wed 11:18:36 PM 41.5439 -81.6872 354° North 112 129 2,100  Level Cleveland Center
Wed 11:19:37 PM 41.5667 -81.7239 310° West 126 145 3,300 1,131 Climbing Cleveland Center
Wed 11:20:38 PM 41.5786 -81.7656 291° West 124 143 4,400 1,043 Climbing Cleveland Center
Wed 11:21:32 PM 41.5908 -81.8019 294° West 128 147 5,300 991 Climbing Cleveland Center
Wed 11:22:33 PM 41.6092 -81.8467 299° West 131 151 6,300 1,043 Climbing Cleveland Center
Wed 11:23:27 PM 41.6253 -81.8858 299° West 127 146 7,300 939 Climbing Cleveland Center
Wed 11:24:28 PM 41.6414 -81.9306 296° West 136 157 8,100 397 Climbing Cleveland Center
Wed 11:25:28 PM 41.6617 -81.9867 296° West 186 214 8,100  Level Cleveland Center
Wed 11:26:29 PM 41.6900 -82.0458 303° West 175 201 8,100  Level Cleveland Center
Wed 11:27:30 PM 41.7122 -82.1047 297° West 179 206 8,100  Level Cleveland Center
Wed 11:28:24 PM 41.7303 -82.1581 294° West 180 207 8,100  Level Cleveland Center
Wed 11:29:25 PM 41.7564 -82.2197 300° West 180 207 8,100  Level Cleveland Center
Wed 11:30:25 PM 41.7786 -82.2817 296° West 179 206 8,100  Level Cleveland Center
Wed 11:31:26 PM 41.8006 -82.3408 296° West 180 207 8,100 -57 Level Cleveland Center
Wed 11:32:10 PM 41.8186 -82.3803 302° West 179 206 8,000 -52 Descending Cleveland Center
Wed 11:33:22 PM 41.8467 -82.4508 298° West 180 207 8,000  Level Cleveland Center
Wed 11:34:23 PM 41.8667 -82.5153 293° West 181 208 8,000  Level Cleveland Center
Wed 11:35:24 PM 41.8906 -82.5747 298° West 182 209 8,000  Level Cleveland Center
Wed 11:36:24 PM 41.9144 -82.6342 298° West 183 211 8,000 -50 Level Cleveland Center
Wed 11:37:25 PM 41.9383 -82.6992 296° West 183 211 7,900 -344 Descending Cleveland Center
Wed 11:38:26 PM 41.9619 -82.7669 295° West 197 227 7,300 -492 Descending Cleveland Center
Wed 11:39:27 PM 41.9881 -82.8292 299° West 194 223 6,900 -443 Descending Cleveland Center
Wed 11:40:28 PM 42.0203 -82.8864 307° West 186 214 6,400 -425 Descending Cleveland Center
Wed 11:41:34 PM 42.0567 -82.9436 311° West 184 212 6,000 -189 Descending Cleveland Center
Wed 11:42:35 PM 42.0931 -82.9897 317° Northwest 175 201 6,000  Level Cleveland Center
Wed 11:43:36 PM 42.1233 -83.0356 312° West 170 196 6,000  Level Cleveland Center
Wed 11:44:36 PM 42.1558 -83.0817 314° West 168 193 6,000 -149 Level Cleveland Center
Wed 11:45:37 PM 42.1881 -83.1306 312° West 167 192 5,700 -344 Descending Cleveland Center
Wed 11:46:38 PM 42.2075 -83.1931 293° West 185 213 5,300 -397 Descending Cleveland Center
Wed 11:47:38 PM 42.2311 -83.2556 297° West 183 211 4,900 -198 Descending Cleveland Center
Wed 11:48:39 PM 42.2656 -83.2936 321° Northwest 157 181 4,900  Level Cleveland Center
Wed 11:49:39 PM 42.3047 -83.3206 333° Northwest 154 177 4,900 -397 Level Cleveland Center
Wed 11:50:40 PM 42.3456 -83.3506 331° Northwest 178 205 4,100 -738 Descending Cleveland Center
Wed 11:51:41 PM 42.3506 -83.4014 278° West 178 205 3,400 -730 Descending Cleveland Center
Wed 11:52:35 PM 42.3103 -83.4303 208° Southwest 178 205 2,700 -835 Descending Cleveland Center
Wed 11:53:36 PM 42.2778 -83.4822 230° Southwest 177 204 1,800 -885 Descending Cleveland Center
Wed 11:55:00 PM 42.2333 -83.5167 217° Southwest  Level FlightAware Approximate

Login

Don't have an account? Register now (free) for customized features, flight alerts, and more!